sensor_id;sensor_type;location;lat;lon;timestamp;P1;durP1;ratioP1;P2;durP2;ratioP2
64351;SDS011;50680;52.626;-8.668;2022-09-02T10:11:25;7.97;;;3.70;;
64351;SDS011;50680;52.626;-8.668;2022-09-02T10:13:54;4.35;;;3.20;;
64351;SDS011;50680;52.626;-8.668;2022-09-02T10:16:28;5.18;;;3.40;;
64351;SDS011;50680;52.626;-8.668;2022-09-02T10:36:33;6.43;;;2.05;;
64351;SDS011;50680;52.626;-8.668;2022-09-02T10:47:35;1.92;;;1.40;;
64351;SDS011;50680;52.626;-8.668;2022-09-02T10:57:51;1.80;;;1.55;;
64351;SDS011;50680;52.626;-8.668;2022-09-02T11:00:24;12.30;;;1.92;;
64351;SDS011;50680;52.626;-8.668;2022-09-02T11:05:27;10.50;;;4.30;;
64351;SDS011;50680;52.626;-8.668;2022-09-02T11:08:10;13.35;;;4.30;;
64351;SDS011;50680;52.626;-8.668;2022-09-02T11:13:20;8.15;;;4.63;;
64351;SDS011;50680;52.626;-8.668;2022-09-02T11:24:15;8.27;;;4.45;;
64351;SDS011;50680;52.626;-8.668;2022-09-02T11:32:40;11.65;;;5.10;;
64351;SDS011;50680;52.626;-8.668;2022-09-02T11:35:10;7.88;;;4.38;;
64351;SDS011;50680;52.626;-8.668;2022-09-02T11:38:08;7.47;;;3.95;;
64351;SDS011;50680;52.626;-8.668;2022-09-02T11:43:37;7.03;;;3.92;;
64351;SDS011;50680;52.626;-8.668;2022-09-02T11:46:16;7.78;;;3.90;;
64351;SDS011;50680;52.626;-8.668;2022-09-02T11:51:53;3.42;;;3.13;;
64351;SDS011;50680;52.626;-8.668;2022-09-02T11:54:34;7.85;;;3.58;;
64351;SDS011;50680;52.626;-8.668;2022-09-02T11:57:09;8.82;;;4.25;;
64351;SDS011;50680;52.626;-8.668;2022-09-02T12:05:31;7.20;;;3.50;;
64351;SDS011;50680;52.626;-8.668;2022-09-02T12:07:57;7.97;;;3.75;;
64351;SDS011;50680;52.626;-8.668;2022-09-02T12:13:09;6.22;;;3.40;;
64351;SDS011;50680;52.626;-8.668;2022-09-02T12:18:42;5.65;;;2.92;;
64351;SDS011;50680;52.626;-8.668;2022-09-02T12:21:51;3.42;;;2.92;;
64351;SDS011;50680;52.626;-8.668;2022-09-02T12:24:49;5.57;;;2.97;;
64351;SDS011;50680;52.626;-8.668;2022-09-02T12:27:19;3.58;;;2.50;;
64351;SDS011;50680;52.626;-8.668;2022-09-02T12:29:58;5.30;;;2.30;;
64351;SDS011;50680;52.626;-8.668;2022-09-02T12:35:33;3.80;;;1.65;;
64351;SDS011;50680;52.626;-8.668;2022-09-02T12:38:23;2.00;;;1.23;;
64351;SDS011;50680;52.626;-8.668;2022-09-02T12:52:05;3.63;;;1.40;;
64351;SDS011;50680;52.626;-8.668;2022-09-02T12:54:43;5.00;;;1.55;;
64351;SDS011;50680;52.626;-8.668;2022-09-02T12:57:15;3.08;;;1.00;;
64351;SDS011;50680;52.626;-8.668;2022-09-02T12:59:43;4.97;;;0.90;;
64351;SDS011;50680;52.626;-8.668;2022-09-02T13:24:50;3.25;;;1.17;;
64351;SDS011;50680;52.626;-8.668;2022-09-02T13:32:33;3.15;;;0.98;;
64351;SDS011;50680;52.626;-8.668;2022-09-02T13:35:02;2.85;;;1.05;;
64351;SDS011;50680;52.626;-8.668;2022-09-02T13:37:36;1.13;;;1.00;;
64351;SDS011;50680;52.626;-8.668;2022-09-02T13:40:16;3.00;;;1.33;;
64351;SDS011;50680;52.626;-8.668;2022-09-02T13:42:48;4.07;;;1.65;;
64351;SDS011;50680;52.626;-8.668;2022-09-02T13:45:20;2.53;;;1.42;;
64351;SDS011;50680;52.626;-8.668;2022-09-02T13:47:56;7.40;;;1.50;;
64351;SDS011;50680;52.626;-8.668;2022-09-02T13:50:25;3.28;;;1.45;;
64351;SDS011;50680;52.626;-8.668;2022-09-02T13:52:56;10.73;;;2.22;;
64351;SDS011;50680;52.626;-8.668;2022-09-02T13:55:46;3.10;;;1.30;;
64351;SDS011;50680;52.626;-8.668;2022-09-02T14:00:54;5.88;;;1.30;;
64351;SDS011;50680;52.626;-8.668;2022-09-02T14:03:27;3.88;;;1.27;;
64351;SDS011;50680;52.626;-8.668;2022-09-02T14:05:58;3.38;;;1.27;;
64351;SDS011;50680;52.626;-8.668;2022-09-02T14:08:27;6.13;;;1.27;;
64351;SDS011;50680;52.626;-8.668;2022-09-02T14:10:56;4.05;;;1.10;;
64351;SDS011;50680;52.626;-8.668;2022-09-02T14:13:23;3.53;;;1.25;;
64351;SDS011;50680;52.626;-8.668;2022-09-02T14:15:51;6.22;;;1.10;;
64351;SDS011;50680;52.626;-8.668;2022-09-02T14:18:21;2.88;;;0.90;;
64351;SDS011;50680;52.626;-8.668;2022-09-02T14:20:55;0.90;;;0.80;;
64351;SDS011;50680;52.626;-8.668;2022-09-02T14:23:34;13.38;;;1.10;;
64351;SDS011;50680;52.626;-8.668;2022-09-02T14:26:05;5.40;;;0.98;;
64351;SDS011;50680;52.626;-8.668;2022-09-02T14:28:32;4.20;;;0.85;;
64351;SDS011;50680;52.626;-8.668;2022-09-02T14:38:56;1.65;;;0.80;;
64351;SDS011;50680;52.626;-8.668;2022-09-02T14:41:34;6.47;;;0.82;;
64351;SDS011;50680;52.626;-8.668;2022-09-02T14:46:44;7.35;;;1.00;;
64351;SDS011;50680;52.626;-8.668;2022-09-02T14:49:27;1.40;;;0.70;;
64351;SDS011;50680;52.626;-8.668;2022-09-02T14:51:58;2.70;;;0.70;;
64351;SDS011;50680;52.626;-8.668;2022-09-02T14:54:33;3.08;;;0.85;;
64351;SDS011;50680;52.626;-8.668;2022-09-02T14:57:03;4.00;;;0.80;;
64351;SDS011;50680;52.626;-8.668;2022-09-02T14:59:31;4.65;;;0.80;;
64351;SDS011;50680;52.626;-8.668;2022-09-02T15:01:58;4.15;;;0.80;;
64351;SDS011;50680;52.626;-8.668;2022-09-02T15:04:25;5.50;;;0.82;;
64351;SDS011;50680;52.626;-8.668;2022-09-02T15:06:52;3.03;;;0.73;;
64351;SDS011;50680;52.626;-8.668;2022-09-02T15:09:19;1.20;;;0.80;;
64351;SDS011;50680;52.626;-8.668;2022-09-02T15:11:50;4.15;;;0.90;;
64351;SDS011;50680;52.626;-8.668;2022-09-02T15:14:19;3.45;;;0.82;;
64351;SDS011;50680;52.626;-8.668;2022-09-02T15:16:46;1.65;;;0.90;;
64351;SDS011;50680;52.626;-8.668;2022-09-02T15:19:13;3.60;;;1.17;;
64351;SDS011;50680;52.626;-8.668;2022-09-02T15:21:40;15.40;;;1.17;;
64351;SDS011;50680;52.626;-8.668;2022-09-02T15:24:07;8.38;;;1.10;;
64351;SDS011;50680;52.626;-8.668;2022-09-02T15:26:34;2.53;;;1.00;;
64351;SDS011;50680;52.626;-8.668;2022-09-02T15:29:01;30.08;;;2.63;;
64351;SDS011;50680;52.626;-8.668;2022-09-02T15:31:28;10.43;;;1.23;;
64351;SDS011;50680;52.626;-8.668;2022-09-02T15:33:56;14.32;;;1.80;;
64351;SDS011;50680;52.626;-8.668;2022-09-02T15:36:24;3.13;;;0.60;;
64351;SDS011;50680;52.626;-8.668;2022-09-02T15:38:52;1.77;;;0.80;;
64351;SDS011;50680;52.626;-8.668;2022-09-02T15:41:21;3.75;;;0.70;;
64351;SDS011;50680;52.626;-8.668;2022-09-02T15:43:52;9.05;;;0.90;;
64351;SDS011;50680;52.626;-8.668;2022-09-02T15:48:48;11.63;;;1.27;;
64351;SDS011;50680;52.626;-8.668;2022-09-02T15:51:17;4.97;;;1.10;;
64351;SDS011;50680;52.626;-8.668;2022-09-02T15:53:46;3.15;;;1.38;;
64351;SDS011;50680;52.626;-8.668;2022-09-02T15:56:15;2.30;;;0.98;;
64351;SDS011;50680;52.626;-8.668;2022-09-02T15:58:44;1.55;;;0.85;;
64351;SDS011;50680;52.626;-8.668;2022-09-02T16:01:11;2.45;;;0.75;;
64351;SDS011;50680;52.626;-8.668;2022-09-02T16:03:39;5.18;;;0.95;;
64351;SDS011;50680;52.626;-8.668;2022-09-02T16:06:09;3.10;;;1.00;;
64351;SDS011;50680;52.626;-8.668;2022-09-02T16:08:36;3.28;;;1.15;;
64351;SDS011;50680;52.626;-8.668;2022-09-02T16:11:04;2.92;;;1.25;;
64351;SDS011;50680;52.626;-8.668;2022-09-02T16:13:32;1.40;;;1.20;;
64351;SDS011;50680;52.626;-8.668;2022-09-02T16:16:01;4.30;;;1.27;;
64351;SDS011;50680;52.626;-8.668;2022-09-02T16:18:29;2.70;;;1.40;;
64351;SDS011;50680;52.626;-8.668;2022-09-02T16:20:56;2.05;;;1.35;;
64351;SDS011;50680;52.626;-8.668;2022-09-02T16:23:23;3.03;;;1.10;;
64351;SDS011;50680;52.626;-8.668;2022-09-02T16:28:39;4.60;;;1.15;;
64351;SDS011;50680;52.626;-8.668;2022-09-02T16:31:08;4.35;;;1.30;;
64351;SDS011;50680;52.626;-8.668;2022-09-02T16:33:36;1.70;;;1.27;;
64351;SDS011;50680;52.626;-8.668;2022-09-02T16:36:03;1.88;;;1.30;;
64351;SDS011;50680;52.626;-8.668;2022-09-02T16:38:31;1.00;;;0.90;;
64351;SDS011;50680;52.626;-8.668;2022-09-02T16:41:00;1.67;;;1.10;;
64351;SDS011;50680;52.626;-8.668;2022-09-02T16:43:28;1.80;;;1.20;;
64351;SDS011;50680;52.626;-8.668;2022-09-02T16:45:57;4.80;;;1.40;;
64351;SDS011;50680;52.626;-8.668;2022-09-02T16:48:29;2.92;;;0.90;;
64351;SDS011;50680;52.626;-8.668;2022-09-02T16:51:02;9.07;;;1.10;;
64351;SDS011;50680;52.626;-8.668;2022-09-02T16:53:30;3.25;;;1.02;;
64351;SDS011;50680;52.626;-8.668;2022-09-02T16:55:57;3.47;;;0.77;;
64351;SDS011;50680;52.626;-8.668;2022-09-02T16:58:24;4.65;;;0.90;;
64351;SDS011;50680;52.626;-8.668;2022-09-02T17:00:52;1.35;;;0.93;;
64351;SDS011;50680;52.626;-8.668;2022-09-02T17:03:18;1.65;;;0.80;;
64351;SDS011;50680;52.626;-8.668;2022-09-02T17:05:45;4.50;;;0.93;;
64351;SDS011;50680;52.626;-8.668;2022-09-02T17:08:14;14.25;;;1.23;;
64351;SDS011;50680;52.626;-8.668;2022-09-02T17:10:42;6.07;;;0.82;;
64351;SDS011;50680;52.626;-8.668;2022-09-02T17:13:09;1.85;;;0.77;;
64351;SDS011;50680;52.626;-8.668;2022-09-02T17:15:36;1.23;;;0.73;;
64351;SDS011;50680;52.626;-8.668;2022-09-02T17:18:03;3.33;;;0.90;;
64351;SDS011;50680;52.626;-8.668;2022-09-02T17:20:30;3.70;;;0.98;;
64351;SDS011;50680;52.626;-8.668;2022-09-02T17:22:57;2.70;;;1.50;;
64351;SDS011;50680;52.626;-8.668;2022-09-02T17:25:23;2.25;;;1.27;;
64351;SDS011;50680;52.626;-8.668;2022-09-02T17:27:51;4.53;;;1.40;;
64351;SDS011;50680;52.626;-8.668;2022-09-02T17:30:17;2.80;;;1.45;;
64351;SDS011;50680;52.626;-8.668;2022-09-02T17:32:44;2.30;;;1.40;;
64351;SDS011;50680;52.626;-8.668;2022-09-02T17:35:12;2.88;;;1.83;;
64351;SDS011;50680;52.626;-8.668;2022-09-02T17:37:39;2.70;;;1.60;;
64351;SDS011;50680;52.626;-8.668;2022-09-02T17:40:07;2.38;;;1.70;;
64351;SDS011;50680;52.626;-8.668;2022-09-02T17:42:57;2.75;;;1.70;;
64351;SDS011;50680;52.626;-8.668;2022-09-02T17:45:24;2.03;;;1.48;;
64351;SDS011;50680;52.626;-8.668;2022-09-02T17:47:51;2.00;;;1.50;;
64351;SDS011;50680;52.626;-8.668;2022-09-02T17:50:17;2.67;;;1.60;;
64351;SDS011;50680;52.626;-8.668;2022-09-02T17:52:44;2.45;;;1.67;;
64351;SDS011;50680;52.626;-8.668;2022-09-02T17:55:11;6.45;;;1.40;;
64351;SDS011;50680;52.626;-8.668;2022-09-02T18:00:16;2.30;;;1.50;;
64351;SDS011;50680;52.626;-8.668;2022-09-02T18:05:53;3.75;;;1.38;;
64351;SDS011;50680;52.626;-8.668;2022-09-02T18:08:34;3.47;;;1.60;;
64351;SDS011;50680;52.626;-8.668;2022-09-02T18:11:07;6.25;;;1.70;;
64351;SDS011;50680;52.626;-8.668;2022-09-02T18:13:36;4.75;;;1.90;;
64351;SDS011;50680;52.626;-8.668;2022-09-02T18:21:56;3.28;;;1.50;;
64351;SDS011;50680;52.626;-8.668;2022-09-02T18:30:17;2.97;;;1.40;;
64351;SDS011;50680;52.626;-8.668;2022-09-02T18:32:53;10.50;;;1.77;;
64351;SDS011;50680;52.626;-8.668;2022-09-02T18:41:15;2.38;;;1.73;;
64351;SDS011;50680;52.626;-8.668;2022-09-02T18:44:06;8.45;;;1.75;;
64351;SDS011;50680;52.626;-8.668;2022-09-02T18:46:43;5.70;;;1.83;;
64351;SDS011;50680;52.626;-8.668;2022-09-02T18:49:18;7.32;;;2.08;;
64351;SDS011;50680;52.626;-8.668;2022-09-02T18:51:47;4.07;;;1.90;;
64351;SDS011;50680;52.626;-8.668;2022-09-02T18:54:22;7.55;;;2.28;;
64351;SDS011;50680;52.626;-8.668;2022-09-02T18:56:54;4.32;;;2.20;;
64351;SDS011;50680;52.626;-8.668;2022-09-02T18:59:35;6.68;;;2.60;;
64351;SDS011;50680;52.626;-8.668;2022-09-02T19:05:11;6.93;;;4.30;;
64351;SDS011;50680;52.626;-8.668;2022-09-02T19:07:44;9.00;;;4.70;;
64351;SDS011;50680;52.626;-8.668;2022-09-02T19:10:30;9.38;;;5.90;;
64351;SDS011;50680;52.626;-8.668;2022-09-02T19:12:57;12.05;;;5.97;;
64351;SDS011;50680;52.626;-8.668;2022-09-02T19:15:26;10.48;;;6.53;;
64351;SDS011;50680;52.626;-8.668;2022-09-02T19:17:54;10.13;;;6.93;;
64351;SDS011;50680;52.626;-8.668;2022-09-02T19:20:21;10.02;;;6.95;;
64351;SDS011;50680;52.626;-8.668;2022-09-02T19:22:49;15.20;;;7.47;;
64351;SDS011;50680;52.626;-8.668;2022-09-02T19:25:19;13.57;;;8.25;;
64351;SDS011;50680;52.626;-8.668;2022-09-02T19:27:49;14.63;;;7.97;;
64351;SDS011;50680;52.626;-8.668;2022-09-02T19:30:19;12.25;;;7.97;;
64351;SDS011;50680;52.626;-8.668;2022-09-02T19:32:48;17.08;;;8.48;;
64351;SDS011;50680;52.626;-8.668;2022-09-02T19:35:23;21.42;;;9.52;;
64351;SDS011;50680;52.626;-8.668;2022-09-02T19:37:53;18.27;;;9.52;;
64351;SDS011;50680;52.626;-8.668;2022-09-02T19:40:21;17.70;;;9.48;;
64351;SDS011;50680;52.626;-8.668;2022-09-02T19:42:48;17.73;;;10.63;;
64351;SDS011;50680;52.626;-8.668;2022-09-02T19:45:18;19.23;;;11.18;;
64351;SDS011;50680;52.626;-8.668;2022-09-02T19:47:47;17.95;;;11.25;;
64351;SDS011;50680;52.626;-8.668;2022-09-02T19:50:34;21.20;;;11.55;;
64351;SDS011;50680;52.626;-8.668;2022-09-02T19:53:02;25.98;;;12.52;;
64351;SDS011;50680;52.626;-8.668;2022-09-02T19:55:29;17.83;;;9.60;;
64351;SDS011;50680;52.626;-8.668;2022-09-02T19:57:59;14.00;;;8.32;;
64351;SDS011;50680;52.626;-8.668;2022-09-02T20:00:26;11.77;;;6.35;;
64351;SDS011;50680;52.626;-8.668;2022-09-02T20:02:53;6.00;;;3.83;;
64351;SDS011;50680;52.626;-8.668;2022-09-02T20:05:20;8.10;;;2.33;;
64351;SDS011;50680;52.626;-8.668;2022-09-02T20:07:51;1.75;;;1.40;;
64351;SDS011;50680;52.626;-8.668;2022-09-02T20:10:19;4.25;;;1.02;;
64351;SDS011;50680;52.626;-8.668;2022-09-02T20:12:53;1.10;;;0.50;;
64351;SDS011;50680;52.626;-8.668;2022-09-02T20:15:20;0.35;;;0.35;;
64351;SDS011;50680;52.626;-8.668;2022-09-02T20:17:47;0.70;;;0.40;;
64351;SDS011;50680;52.626;-8.668;2022-09-02T20:20:16;2.53;;;0.40;;
64351;SDS011;50680;52.626;-8.668;2022-09-02T20:22:48;1.33;;;0.25;;
64351;SDS011;50680;52.626;-8.668;2022-09-02T20:25:21;1.15;;;0.28;;
64351;SDS011;50680;52.626;-8.668;2022-09-02T20:28:18;0.40;;;0.20;;
64351;SDS011;50680;52.626;-8.668;2022-09-02T20:33:59;0.47;;;0.30;;
64351;SDS011;50680;52.626;-8.668;2022-09-02T20:36:41;1.08;;;0.50;;
64351;SDS011;50680;52.626;-8.668;2022-09-02T20:42:24;2.08;;;0.70;;
64351;SDS011;50680;52.626;-8.668;2022-09-02T21:02:14;5.25;;;0.80;;
64351;SDS011;50680;52.626;-8.668;2022-09-02T21:04:50;3.05;;;0.35;;
64351;SDS011;50680;52.626;-8.668;2022-09-02T21:07:22;1.10;;;0.30;;
64351;SDS011;50680;52.626;-8.668;2022-09-02T21:15:12;4.32;;;0.65;;
64351;SDS011;50680;52.626;-8.668;2022-09-02T21:23:25;8.95;;;0.70;;
64351;SDS011;50680;52.626;-8.668;2022-09-02T21:27:01;2.03;;;0.80;;
64351;SDS011;50680;52.626;-8.668;2022-09-02T21:29:30;1.45;;;0.70;;
64351;SDS011;50680;52.626;-8.668;2022-09-02T21:32:04;3.58;;;0.60;;
64351;SDS011;50680;52.626;-8.668;2022-09-02T21:34:39;4.25;;;1.00;;
64351;SDS011;50680;52.626;-8.668;2022-09-02T21:37:29;3.22;;;0.80;;
64351;SDS011;50680;52.626;-8.668;2022-09-02T21:40:03;1.48;;;0.70;;
64351;SDS011;50680;52.626;-8.668;2022-09-02T21:47:57;5.22;;;1.00;;
64351;SDS011;50680;52.626;-8.668;2022-09-02T21:50:40;3.70;;;0.85;;
64351;SDS011;50680;52.626;-8.668;2022-09-02T21:53:21;3.08;;;0.77;;
64351;SDS011;50680;52.626;-8.668;2022-09-02T22:02:10;4.03;;;0.60;;
64351;SDS011;50680;52.626;-8.668;2022-09-02T22:07:41;1.92;;;0.60;;
64351;SDS011;50680;52.626;-8.668;2022-09-02T22:10:26;3.88;;;0.68;;
64351;SDS011;50680;52.626;-8.668;2022-09-02T22:12:55;4.32;;;0.73;;
64351;SDS011;50680;52.626;-8.668;2022-09-02T22:15:40;5.13;;;0.60;;
64351;SDS011;50680;52.626;-8.668;2022-09-02T22:21:16;2.60;;;0.57;;
64351;SDS011;50680;52.626;-8.668;2022-09-02T22:23:51;3.53;;;0.60;;
64351;SDS011;50680;52.626;-8.668;2022-09-02T22:29:16;3.33;;;0.68;;
64351;SDS011;50680;52.626;-8.668;2022-09-02T22:31:50;4.03;;;0.60;;
64351;SDS011;50680;52.626;-8.668;2022-09-02T22:34:22;4.38;;;0.60;;
64351;SDS011;50680;52.626;-8.668;2022-09-02T22:39:22;6.82;;;0.90;;
64351;SDS011;50680;52.626;-8.668;2022-09-02T22:41:57;3.05;;;0.63;;
64351;SDS011;50680;52.626;-8.668;2022-09-02T22:44:34;5.30;;;1.10;;
64351;SDS011;50680;52.626;-8.668;2022-09-02T22:47:26;4.53;;;1.00;;
64351;SDS011;50680;52.626;-8.668;2022-09-02T22:50:17;2.97;;;0.73;;
64351;SDS011;50680;52.626;-8.668;2022-09-02T23:06:46;6.50;;;1.23;;
64351;SDS011;50680;52.626;-8.668;2022-09-02T23:09:13;5.82;;;1.30;;
64351;SDS011;50680;52.626;-8.668;2022-09-02T23:11:53;9.37;;;1.07;;
64351;SDS011;50680;52.626;-8.668;2022-09-02T23:14:24;5.43;;;1.15;;
64351;SDS011;50680;52.626;-8.668;2022-09-02T23:17:16;5.97;;;1.35;;
64351;SDS011;50680;52.626;-8.668;2022-09-02T23:25:25;6.05;;;1.10;;
64351;SDS011;50680;52.626;-8.668;2022-09-02T23:30:51;4.78;;;0.90;;
64351;SDS011;50680;52.626;-8.668;2022-09-02T23:34:06;4.18;;;0.85;;
64351;SDS011;50680;52.626;-8.668;2022-09-02T23:36:51;5.88;;;0.90;;
64351;SDS011;50680;52.626;-8.668;2022-09-02T23:42:09;2.72;;;0.73;;
64351;SDS011;50680;52.626;-8.668;2022-09-02T23:44:38;3.45;;;0.70;;
64351;SDS011;50680;52.626;-8.668;2022-09-02T23:52:56;3.47;;;0.82;;
64351;SDS011;50680;52.626;-8.668;2022-09-02T23:58:45;4.13;;;1.10;;
